Time;durP1;ratioP1;P1;durP2;ratioP2;P2;SDS_P1;SDS_P2;PMS_P1;PMS_P2;Temp;Humidity;BMP_temperature;BMP_pressure;BME280_temperature;BME280_humidity;BME280_pressure;Samples;Min_cycle;Max_cycle;Signal;HPM_P1;HPM_P2
2023/04/14 00:01:48;;;;;;;;;;;;;;;;;;2201202;67;1232;-19
2023/04/14 00:04:19;;;;;;;;;;;;;;;;;;2202498;67;1130;-19
2023/04/14 00:06:51;;;;;;;;;;;;;;;;;;2198591;67;1144;-19
2023/04/14 00:09:21;;;;;;;;;;;;;;;;;;2201868;59;1175;-19
2023/04/14 00:11:52;;;;;;;;;;;;;;;;;;2198245;67;1160;-19
2023/04/14 00:14:22;;;;;;;;;;;;;;;;;;2198373;67;1378;-19
2023/04/14 00:16:52;;;;;;;;;;;;;;;;;;2198096;67;1938;-20
2023/04/14 00:19:22;;;;;;;;;;;;;;;;;;2198036;67;1992;-19
2023/04/14 00:21:53;;;;;;;;;;;;;;;;;;2202223;67;1226;-19
2023/04/14 00:24:23;;;;;;;;;;;;;;;;;;2197802;59;1805;-19
2023/04/14 00:26:53;;;;;;;;;;;;;;;;;;2198155;67;1921;-19
2023/04/14 00:29:24;;;;;;;;;;;;;;;;;;2202034;67;1610;-19
2023/04/14 00:31:54;;;;;;;;;;;;;;;;;;2196487;59;1950;-19
2023/04/14 00:34:24;;;;;;;;;;;;;;;;;;2202356;67;1156;-19
2023/04/14 00:36:55;;;;;;;;;;;;;;;;;;2201325;59;1920;-19
2023/04/14 00:39:25;;;;;;;;;;;;;;;;;;2201359;67;1128;-19
2023/04/14 00:41:55;;;;;;;;;;;;;;;;;;2200134;59;1604;-19
2023/04/14 00:44:26;;;;;;;;;;;;;;;;;;2201169;59;1410;-19
2023/04/14 00:46:58;;;;;;;;;;;;;;;;;;2201961;59;1756;-19
2023/04/14 00:49:28;;;;;;;;;;;;;;;;;;2200854;59;1158;-19
2023/04/14 00:51:59;;;;;;;;;;;;;;;;;;2201345;59;1262;-19
2023/04/14 00:54:31;;;;;;;;;;;;;;;;;;2201860;67;1196;-19
2023/04/14 00:57:01;;;;;;;;;;;;;;;;;;2201419;59;1921;-19
2023/04/14 00:59:32;;;;;;;;;;;;;;;;;;2201870;67;1810;-19
2023/04/14 01:02:05;;;;;;;;;;;;;;;;;;2201480;67;1210;-19
2023/04/14 01:04:36;;;;;;;;;;;;;;;;;;2197767;67;1557;-19
2023/04/14 01:07:06;;;;;;;;;;;;;;;;;;2200345;67;1117;-36
2023/04/14 01:09:37;;;;;;;;;;;;;;;;;;2201652;59;1220;-20
2023/04/14 01:12:16;;;;;;;;;;;;;;;;;;2201921;67;1292;-19
2023/04/14 01:14:53;;;;;;;;;;;;;;;;;;2198581;59;1940;-19
2023/04/14 01:17:38;;;;;;;;;;;;;;;;;;2201850;67;1511;-19
2023/04/14 01:20:15;;;;;;;;;;;;;;;;;;2201997;67;1447;-19
2023/04/14 01:23:03;;;;;;;;;;;;;;;;;;2201656;67;1664;-19
2023/04/14 01:26:03;;;;;;;;;;;;;;;;;;2201534;59;1471;-20
2023/04/14 01:28:41;;;;;;;;;;;;;;;;;;2198148;67;1089;-20
2023/04/14 01:31:21;;;;;;;;;;;;;;;;;;2200816;59;1271;-19
2023/04/14 01:34:11;;;;;;;;;;;;;;;;;;2201399;67;1701;-19
2023/04/14 01:36:43;;;;;;;;;;;;;;;;;;2198355;59;1935;-19
2023/04/14 01:39:17;;;;;;;;;;;;;;;;;;2201434;67;1124;-19
2023/04/14 01:41:50;;;;;;;;;;;;;;;;;;2201789;59;1313;-19
2023/04/14 01:44:21;;;;;;;;;;;;;;;;;;2197027;67;2069;-19
2023/04/14 01:46:52;;;;;;;;;;;;;;;;;;2201463;59;1434;-19
2023/04/14 01:49:23;;;;;;;;;;;;;;;;;;2201173;67;1114;-19
2023/04/14 01:51:54;;;;;;;;;;;;;;;;;;2201441;59;1312;-19
2023/04/14 01:54:28;;;;;;;;;;;;;;;;;;2201181;67;1508;-19
2023/04/14 01:57:00;;;;;;;;;;;;;;;;;;2200844;59;1950;-20
2023/04/14 01:59:32;;;;;;;;;;;;;;;;;;2201035;67;2182;-19
2023/04/14 02:02:04;;;;;;;;;;;;;;;;;;2202015;67;1678;-19
2023/04/14 02:04:35;;;;;;;;;;;;;;;;;;2201164;67;1121;-19
2023/04/14 02:07:06;;;;;;;;;;;;;;;;;;2198768;67;1757;-19
2023/04/14 02:09:38;;;;;;;;;;;;;;;;;;2200741;59;2270;-19
2023/04/14 02:12:10;;;;;;;;;;;;;;;;;;2196187;67;1773;-19
2023/04/14 02:14:41;;;;;;;;;;;;;;;;;;2200510;59;1945;-19
2023/04/14 02:17:12;;;;;;;;;;;;;;;;;;2197583;59;1821;-19
2023/04/14 02:19:43;;;;;;;;;;;;;;;;;;2202427;67;1157;-19
2023/04/14 02:22:13;;;;;;;;;;;;;;;;;;2202288;59;1226;-20
2023/04/14 02:24:45;;;;;;;;;;;;;;;;;;2201564;59;1495;-20
2023/04/14 02:27:25;;;;;;;;;;;;;;;;;;2201642;67;1141;-19
2023/04/14 02:29:57;;;;;;;;;;;;;;;;;;2201409;67;2162;-20
2023/04/14 02:32:29;;;;;;;;;;;;;;;;;;2202091;59;1282;-19
2023/04/14 02:35:15;;;;;;;;;;;;;;;;;;2201457;59;1941;-19
2023/04/14 02:37:52;;;;;;;;;;;;;;;;;;2197628;60;1183;-19
2023/04/14 02:40:25;;;;;;;;;;;;;;;;;;2198179;59;1911;-19
2023/04/14 02:42:59;;;;;;;;;;;;;;;;;;2197674;67;1979;-19
2023/04/14 02:45:33;;;;;;;;;;;;;;;;;;2201549;67;1197;-19
2023/04/14 02:48:07;;;;;;;;;;;;;;;;;;2196805;59;1330;-19
2023/04/14 02:50:43;;;;;;;;;;;;;;;;;;2197806;59;1669;-19
2023/04/14 02:53:15;;;;;;;;;;;;;;;;;;2201815;67;1416;-19
2023/04/14 02:55:46;;;;;;;;;;;;;;;;;;2201841;59;1982;-19
2023/04/14 02:58:17;;;;;;;;;;;;;;;;;;2201709;67;1137;-19
2023/04/14 03:00:48;;;;;;;;;;;;;;;;;;2202054;67;1161;-19
2023/04/14 03:03:19;;;;;;;;;;;;;;;;;;2202335;67;1258;-19
2023/04/14 03:05:49;;;;;;;;;;;;;;;;;;2201647;67;1343;-19
2023/04/14 03:08:21;;;;;;;;;;;;;;;;;;2198870;67;1322;-19
2023/04/14 03:10:53;;;;;;;;;;;;;;;;;;2201074;67;1325;-19
2023/04/14 03:13:24;;;;;;;;;;;;;;;;;;2197573;67;1218;-19
2023/04/14 03:15:55;;;;;;;;;;;;;;;;;;2200965;67;1938;-19
2023/04/14 03:18:29;;;;;;;;;;;;;;;;;;2201751;67;1124;-20
2023/04/14 03:21:01;;;;;;;;;;;;;;;;;;2198097;59;1467;-19
2023/04/14 03:23:32;;;;;;;;;;;;;;;;;;2198440;67;1664;-19
2023/04/14 03:26:02;;;;;;;;;;;;;;;;;;2200895;59;2095;-19
2023/04/14 03:28:38;;;;;;;;;;;;;;;;;;2198138;67;1335;-20
2023/04/14 03:31:10;;;;;;;;;;;;;;;;;;2202342;59;1229;-19
2023/04/14 03:33:42;;;;;;;;;;;;;;;;;;2201998;67;1102;-19
2023/04/14 03:36:14;;;;;;;;;;;;;;;;;;2202473;59;1994;-19
2023/04/14 03:38:48;;;;;;;;;;;;;;;;;;2197943;67;1165;-19
2023/04/14 03:41:22;;;;;;;;;;;;;;;;;;2201937;59;2066;-19
2023/04/14 03:43:55;;;;;;;;;;;;;;;;;;2198692;60;1405;-19
2023/04/14 03:46:27;;;;;;;;;;;;;;;;;;2202424;59;1300;-19
2023/04/14 03:48:58;;;;;;;;;;;;;;;;;;2201718;67;1092;-19
2023/04/14 03:51:31;;;;;;;;;;;;;;;;;;2201371;59;1212;-19
2023/04/14 03:54:03;;;;;;;;;;;;;;;;;;2198402;59;1689;-19
2023/04/14 03:56:39;;;;;;;;;;;;;;;;;;2198956;67;1930;-19
2023/04/14 03:59:12;;;;;;;;;;;;;;;;;;2202031;67;1393;-19
2023/04/14 04:01:43;;;;;;;;;;;;;;;;;;2202194;67;1166;-19
2023/04/14 04:04:13;;;;;;;;;;;;;;;;;;2202144;67;1358;-19
2023/04/14 04:06:44;;;;;;;;;;;;;;;;;;2197701;67;1297;-19
2023/04/14 04:09:16;;;;;;;;;;;;;;;;;;2201786;59;1246;-19
2023/04/14 04:11:48;;;;;;;;;;;;;;;;;;2198979;67;1364;-19
2023/04/14 04:14:20;;;;;;;;;;;;;;;;;;2202230;67;1627;-19
2023/04/14 04:16:52;;;;;;;;;;;;;;;;;;2197907;67;1933;-19
2023/04/14 04:19:22;;;;;;;;;;;;;;;;;;2199718;67;1318;-19
2023/04/14 04:21:57;;;;;;;;;;;;;;;;;;2201745;59;1661;-19
2023/04/14 04:24:30;;;;;;;;;;;;;;;;;;2202045;59;1682;-19
2023/04/14 04:27:00;;;;;;;;;;;;;;;;;;2202178;67;1159;-19
2023/04/14 04:29:31;;;;;;;;;;;;;;;;;;2198092;67;1998;-19
2023/04/14 04:32:01;;;;;;;;;;;;;;;;;;2201428;59;1666;-19
2023/04/14 04:34:32;;;;;;;;;;;;;;;;;;2201977;67;1298;-19
2023/04/14 04:37:02;;;;;;;;;;;;;;;;;;2201546;59;2106;-19
2023/04/14 04:39:32;;;;;;;;;;;;;;;;;;2202011;67;1132;-19
2023/04/14 04:42:03;;;;;;;;;;;;;;;;;;2200700;59;1688;-19
2023/04/14 04:44:34;;;;;;;;;;;;;;;;;;2200462;67;1286;-19
2023/04/14 04:47:04;;;;;;;;;;;;;;;;;;2201818;59;1430;-19
2023/04/14 04:49:35;;;;;;;;;;;;;;;;;;2201713;59;1159;-19
2023/04/14 04:52:05;;;;;;;;;;;;;;;;;;2201937;59;1442;-20
2023/04/14 04:54:35;;;;;;;;;;;;;;;;;;2199445;59;1129;-19
2023/04/14 04:57:06;;;;;;;;;;;;;;;;;;2198066;67;2020;-19
2023/04/14 04:59:36;;;;;;;;;;;;;;;;;;2202007;67;1479;-19
2023/04/14 05:02:07;;;;;;;;;;;;;;;;;;2198937;67;1703;-19
2023/04/14 05:04:37;;;;;;;;;;;;;;;;;;2201329;67;1116;-19
2023/04/14 05:07:07;;;;;;;;;;;;;;;;;;2201661;67;1214;-19
2023/04/14 05:09:37;;;;;;;;;;;;;;;;;;2201090;59;1527;-19
2023/04/14 05:12:08;;;;;;;;;;;;;;;;;;2201127;67;1836;-19
2023/04/14 05:14:38;;;;;;;;;;;;;;;;;;2201759;67;1250;-19
2023/04/14 05:17:08;;;;;;;;;;;;;;;;;;2202188;67;1944;-19
2023/04/14 05:19:39;;;;;;;;;;;;;;;;;;2202256;67;1282;-19
2023/04/14 05:22:12;;;;;;;;;;;;;;;;;;2204678;53;2078;-69
2023/04/14 05:24:47;;;;;;;;;;;;;;;;;;2207957;67;1161;-70
2023/04/14 05:27:17;;;;;;;;;;;;;;;;;;2206793;67;1307;-69
2023/04/14 05:30:49;;;;;;;;;;;;;;;;;;2204249;67;1162;-70
2023/04/14 05:32:48;;;;;;;;;;;;;;;;;;2200429;59;1587;-69
2023/04/14 05:35:18;;;;;;;;;;;;;;;;;;2204901;59;1932;-70
2023/04/14 05:37:48;;;;;;;;;;;;;;;;;;2205735;59;2010;-70
2023/04/14 05:40:22;;;;;;;;;;;;;;;;;;2205117;67;1050;-70
2023/04/14 05:42:52;;;;;;;;;;;;;;;;;;2205703;59;2029;-70
2023/04/14 05:45:25;;;;;;;;;;;;;;;;;;2205558;67;1186;-70
2023/04/14 05:47:55;;;;;;;;;;;;;;;;;;2204389;59;1390;-70
2023/04/14 05:50:28;;;;;;;;;;;;;;;;;;2206241;59;1029;-70
2023/04/14 05:52:59;;;;;;;;;;;;;;;;;;2205703;59;1998;-70
2023/04/14 05:55:38;;;;;;;;;;;;;;;;;;2206210;67;1914;-69
2023/04/14 05:58:08;;;;;;;;;;;;;;;;;;2205301;59;2080;-69
2023/04/14 06:00:41;;;;;;;;;;;;;;;;;;2205279;59;1085;-70
2023/04/14 06:03:12;;;;;;;;;;;;;;;;;;2204851;59;1896;-70
2023/04/14 06:05:42;;;;;;;;;;;;;;;;;;2201531;67;1943;-69
2023/04/14 06:08:13;;;;;;;;;;;;;;;;;;2205783;67;1260;-69
2023/04/14 06:10:43;;;;;;;;;;;;;;;;;;2203279;59;1376;-69
2023/04/14 06:13:15;;;;;;;;;;;;;;;;;;2205886;59;2121;-69
2023/04/14 06:15:45;;;;;;;;;;;;;;;;;;2203547;67;1933;-69
2023/04/14 06:18:16;;;;;;;;;;;;;;;;;;2203349;59;2046;-70
2023/04/14 06:20:46;;;;;;;;;;;;;;;;;;2205606;67;1225;-70
2023/04/14 06:23:16;;;;;;;;;;;;;;;;;;2204174;59;2015;-69
2023/04/14 06:25:47;;;;;;;;;;;;;;;;;;2202844;59;2017;-69
2023/04/14 06:28:25;;;;;;;;;;;;;;;;;;2198429;59;2167;-70
2023/04/14 06:30:55;;;;;;;;;;;;;;;;;;2202507;59;1267;-69
2023/04/14 06:33:26;;;;;;;;;;;;;;;;;;2203589;59;2013;-70
2023/04/14 06:35:56;;;;;;;;;;;;;;;;;;2202297;59;2478;-70
2023/04/14 06:38:26;;;;;;;;;;;;;;;;;;2198832;59;1890;-69
2023/04/14 06:40:57;;;;;;;;;;;;;;;;;;2201349;59;1395;-70
2023/04/14 06:43:27;;;;;;;;;;;;;;;;;;2203303;59;2065;-69
2023/04/14 06:45:58;;;;;;;;;;;;;;;;;;2203143;59;1338;-70
2023/04/14 06:48:34;;;;;;;;;;;;;;;;;;2203045;59;1955;-70
2023/04/14 06:51:04;;;;;;;;;;;;;;;;;;2202453;59;2041;-70
2023/04/14 06:53:37;;;;;;;;;;;;;;;;;;2199991;59;2038;-70
2023/04/14 06:56:25;;;;;;;;;;;;;;;;;;2200805;59;1979;-69
2023/04/14 06:58:56;;;;;;;;;;;;;;;;;;2201614;59;2048;-69
2023/04/14 07:01:26;;;;;;;;;;;;;;;;;;2203052;59;1207;-70
2023/04/14 07:04:02;;;;;;;;;;;;;;;;;;2202358;59;1915;-70
2023/04/14 07:06:33;;;;;;;;;;;;;;;;;;2202403;67;1058;-70
2023/04/14 07:09:03;;;;;;;;;;;;;;;;;;2199383;59;2033;-70
2023/04/14 07:11:34;;;;;;;;;;;;;;;;;;2199332;67;1026;-70
2023/04/14 07:14:04;;;;;;;;;;;;;;;;;;2201084;59;2686;-70
2023/04/14 07:16:37;;;;;;;;;;;;;;;;;;2200416;59;2666;-70
2023/04/14 07:19:10;;;;;;;;;;;;;;;;;;2201895;59;2133;-69
2023/04/14 07:21:52;;;;;;;;;;;;;;;;;;2203152;59;962;-70
2023/04/14 07:24:23;;;;;;;;;;;;;;;;;;2202967;59;1954;-70
2023/04/14 07:26:55;;;;;;;;;;;;;;;;;;2202302;59;2010;-70
2023/04/14 07:29:27;;;;;;;;;;;;;;;;;;2202717;59;1094;-70
2023/04/14 07:31:58;;;;;;;;;;;;;;;;;;2203676;59;1685;-70
2023/04/14 07:34:31;;;;;;;;;;;;;;;;;;2203248;67;1238;-70
2023/04/14 07:37:02;;;;;;;;;;;;;;;;;;2202997;59;1945;-69
2023/04/14 07:39:32;;;;;;;;;;;;;;;;;;2203885;67;1133;-70
2023/04/14 07:42:28;;;;;;;;;;;;;;;;;;2201818;59;1867;-69
2023/04/14 07:44:58;;;;;;;;;;;;;;;;;;2203239;59;1066;-70
2023/04/14 07:47:32;;;;;;;;;;;;;;;;;;2204690;59;1292;-70
2023/04/14 07:50:02;;;;;;;;;;;;;;;;;;2203279;59;1101;-70
2023/04/14 07:52:36;;;;;;;;;;;;;;;;;;2204005;67;985;-70
2023/04/14 07:55:06;;;;;;;;;;;;;;;;;;2202646;59;1919;-70
2023/04/14 07:57:36;;;;;;;;;;;;;;;;;;2202455;67;1218;-70
2023/04/14 08:00:10;;;;;;;;;;;;;;;;;;2202527;59;2209;-70
2023/04/14 08:02:42;;;;;;;;;;;;;;;;;;2201946;59;1906;-69
2023/04/14 08:05:12;;;;;;;;;;;;;;;;;;2204790;59;2073;-70
2023/04/14 08:07:44;;;;;;;;;;;;;;;;;;2204719;59;1593;-70
2023/04/14 08:10:17;;;;;;;;;;;;;;;;;;2203400;59;2064;-70
2023/04/14 08:12:48;;;;;;;;;;;;;;;;;;2202366;67;1326;-70
2023/04/14 08:15:18;;;;;;;;;;;;;;;;;;2203692;59;2708;-70
2023/04/14 08:17:48;;;;;;;;;;;;;;;;;;2202532;59;2304;-70
2023/04/14 08:20:19;;;;;;;;;;;;;;;;;;2200319;59;1920;-71
2023/04/14 08:22:49;;;;;;;;;;;;;;;;;;2200359;67;1457;-70
2023/04/14 08:25:19;;;;;;;;;;;;;;;;;;2202693;59;2189;-70
2023/04/14 08:27:50;;;;;;;;;;;;;;;;;;2203518;67;1357;-70
2023/04/14 08:30:20;;;;;;;;;;;;;;;;;;2201959;59;2016;-70
2023/04/14 08:32:50;;;;;;;;;;;;;;;;;;2205006;67;1133;-69
2023/04/14 08:35:22;;;;;;;;;;;;;;;;;;2203911;59;2060;-70
2023/04/14 08:37:53;;;;;;;;;;;;;;;;;;2203665;59;1246;-71
2023/04/14 08:40:24;;;;;;;;;;;;;;;;;;2203214;59;2006;-70
2023/04/14 08:42:55;;;;;;;;;;;;;;;;;;2203446;67;1240;-70
2023/04/14 08:45:27;;;;;;;;;;;;;;;;;;2202716;59;2042;-70
2023/04/14 08:48:03;;;;;;;;;;;;;;;;;;2203167;59;1408;-70
2023/04/14 08:50:35;;;;;;;;;;;;;;;;;;2204239;59;2034;-70
2023/04/14 08:53:08;;;;;;;;;;;;;;;;;;2204248;59;994;-70
2023/04/14 08:55:41;;;;;;;;;;;;;;;;;;2204597;59;1994;-71
2023/04/14 08:58:12;;;;;;;;;;;;;;;;;;2205488;59;1222;-70
2023/04/14 09:00:45;;;;;;;;;;;;;;;;;;2201340;67;1151;-70
2023/04/14 09:03:16;;;;;;;;;;;;;;;;;;2206254;67;1208;-70
2023/04/14 09:05:46;;;;;;;;;;;;;;;;;;2205347;67;1040;-71
2023/04/14 09:08:26;;;;;;;;;;;;;;;;;;2203149;59;1880;-70
2023/04/14 09:11:06;;;;;;;;;;;;;;;;;;2203031;59;2078;-70
2023/04/14 09:13:36;;;;;;;;;;;;;;;;;;2202309;59;1414;-70
2023/04/14 09:16:07;;;;;;;;;;;;;;;;;;2203958;59;2066;-71
2023/04/14 09:18:39;;;;;;;;;;;;;;;;;;2198559;67;2923;-71
2023/04/14 09:21:10;;;;;;;;;;;;;;;;;;2205546;67;1304;-71
2023/04/14 09:23:40;;;;;;;;;;;;;;;;;;2205452;59;1140;-71
2023/04/14 09:26:12;;;;;;;;;;;;;;;;;;2204198;59;2033;-71
2023/04/14 09:28:42;;;;;;;;;;;;;;;;;;2204176;67;1187;-70
2023/04/14 09:31:12;;;;;;;;;;;;;;;;;;2202546;59;1866;-71
2023/04/14 09:33:43;;;;;;;;;;;;;;;;;;2200253;67;2231;-71
2023/04/14 09:36:23;;;;;;;;;;;;;;;;;;2203897;59;2226;-71
2023/04/14 09:38:54;;;;;;;;;;;;;;;;;;2204912;59;1278;-72
2023/04/14 09:41:27;;;;;;;;;;;;;;;;;;2203873;59;1967;-71
2023/04/14 09:44:06;;;;;;;;;;;;;;;;;;2201271;67;1425;-71
2023/04/14 09:46:36;;;;;;;;;;;;;;;;;;2203986;59;2039;-70
2023/04/14 09:49:06;;;;;;;;;;;;;;;;;;2205283;59;2281;-71
2023/04/14 09:51:37;;;;;;;;;;;;;;;;;;2203716;59;1932;-71
2023/04/14 09:54:07;;;;;;;;;;;;;;;;;;2205054;59;1104;-71
2023/04/14 09:56:44;;;;;;;;;;;;;;;;;;2204891;59;1979;-71
2023/04/14 09:59:14;;;;;;;;;;;;;;;;;;2202815;59;2184;-71
2023/04/14 10:01:44;;;;;;;;;;;;;;;;;;2198801;67;965;-71
2023/04/14 10:04:25;;;;;;;;;;;;;;;;;;2203820;59;2239;-71
2023/04/14 10:06:56;;;;;;;;;;;;;;;;;;2203299;59;2026;-71
2023/04/14 10:09:27;;;;;;;;;;;;;;;;;;2203802;59;1414;-71
2023/04/14 10:12:11;;;;;;;;;;;;;;;;;;2203788;59;1992;-71
2023/04/14 10:14:42;;;;;;;;;;;;;;;;;;2203744;59;2101;-71
2023/04/14 10:17:13;;;;;;;;;;;;;;;;;;2198483;59;2364;-72
2023/04/14 10:19:43;;;;;;;;;;;;;;;;;;2199091;59;2149;-71
2023/04/14 10:22:15;;;;;;;;;;;;;;;;;;2197651;59;1944;-71
2023/04/14 10:24:47;;;;;;;;;;;;;;;;;;2200576;59;1956;-71
2023/04/14 10:27:18;;;;;;;;;;;;;;;;;;2201111;59;2321;-72
2023/04/14 10:29:48;;;;;;;;;;;;;;;;;;2203311;59;1967;-71
2023/04/14 10:32:19;;;;;;;;;;;;;;;;;;2200631;67;1220;-72
2023/04/14 10:34:56;;;;;;;;;;;;;;;;;;2203831;59;1929;-71
2023/04/14 10:37:27;;;;;;;;;;;;;;;;;;2204984;59;1943;-71
2023/04/14 10:39:59;;;;;;;;;;;;;;;;;;2203655;59;2009;-72
2023/04/14 10:42:49;;;;;;;;;;;;;;;;;;2204726;59;1562;-72
2023/04/14 10:45:20;;;;;;;;;;;;;;;;;;2204473;59;1962;-71
2023/04/14 10:47:50;;;;;;;;;;;;;;;;;;2204973;60;1231;-72
2023/04/14 10:50:23;;;;;;;;;;;;;;;;;;2205914;59;2046;-72
2023/04/14 10:52:54;;;;;;;;;;;;;;;;;;2211294;59;1716;-72
2023/04/14 10:55:28;;;;;;;;;;;;;;;;;;2213373;59;1973;-72
2023/04/14 10:58:08;;;;;;;;;;;;;;;;;;2216404;67;1285;-72
2023/04/14 11:00:38;;;;;;;;;;;;;;;;;;2214536;59;2026;-72
2023/04/14 11:03:10;;;;;;;;;;;;;;;;;;2211015;59;1360;-72
2023/04/14 11:05:43;;;;;;;;;;;;;;;;;;2214313;59;1983;-71
2023/04/14 11:08:15;;;;;;;;;;;;;;;;;;2214443;67;1215;-72
2023/04/14 11:10:47;;;;;;;;;;;;;;;;;;2212417;59;1959;-72
2023/04/14 11:13:18;;;;;;;;;;;;;;;;;;2214850;67;1258;-72
2023/04/14 11:15:51;;;;;;;;;;;;;;;;;;2215358;59;1983;-71
2023/04/14 11:18:27;;;;;;;;;;;;;;;;;;2215439;59;2350;-72
2023/04/14 11:21:03;;;;;;;;;;;;;;;;;;2213743;67;2458;-72
2023/04/14 11:23:37;;;;;;;;;;;;;;;;;;2213773;59;2166;-71
2023/04/14 11:26:08;;;;;;;;;;;;;;;;;;2212202;59;2002;-71
2023/04/14 11:28:40;;;;;;;;;;;;;;;;;;2212120;59;2076;-72
2023/04/14 11:31:13;;;;;;;;;;;;;;;;;;2201930;59;2505;-71
2023/04/14 11:33:44;;;;;;;;;;;;;;;;;;2204606;59;1226;-71
2023/04/14 11:36:15;;;;;;;;;;;;;;;;;;2203316;59;1999;-72
2023/04/14 11:38:46;;;;;;;;;;;;;;;;;;2202876;67;1297;-72
2023/04/14 11:41:17;;;;;;;;;;;;;;;;;;2204379;59;1989;-72
2023/04/14 11:43:48;;;;;;;;;;;;;;;;;;2204296;59;2492;-71
2023/04/14 11:46:20;;;;;;;;;;;;;;;;;;2200340;59;1890;-71
2023/04/14 11:48:54;;;;;;;;;;;;;;;;;;2204478;67;1284;-71
2023/04/14 11:51:32;;;;;;;;;;;;;;;;;;2204985;59;2110;-71
2023/04/14 11:54:02;;;;;;;;;;;;;;;;;;2204816;67;1037;-71
2023/04/14 11:56:33;;;;;;;;;;;;;;;;;;2205326;59;2011;-71
2023/04/14 11:59:07;;;;;;;;;;;;;;;;;;2202933;67;1181;-71
2023/04/14 12:01:40;;;;;;;;;;;;;;;;;;2204548;67;995;-72
2023/04/14 12:04:11;;;;;;;;;;;;;;;;;;2206402;67;1041;-71
2023/04/14 12:06:41;;;;;;;;;;;;;;;;;;2204950;59;1777;-71
2023/04/14 12:09:11;;;;;;;;;;;;;;;;;;2204367;59;1969;-71
2023/04/14 12:11:54;;;;;;;;;;;;;;;;;;2203400;59;2046;-71
2023/04/14 12:14:24;;;;;;;;;;;;;;;;;;2205015;59;1222;-71
2023/04/14 12:16:55;;;;;;;;;;;;;;;;;;2204112;59;2117;-73
2023/04/14 12:19:25;;;;;;;;;;;;;;;;;;2203884;59;2335;-72
2023/04/14 12:21:56;;;;;;;;;;;;;;;;;;2201492;59;2300;-72
2023/04/14 12:24:36;;;;;;;;;;;;;;;;;;2203283;59;2094;-72
2023/04/14 12:27:08;;;;;;;;;;;;;;;;;;2204351;59;2024;-71
2023/04/14 12:29:40;;;;;;;;;;;;;;;;;;2203367;59;1271;-72
2023/04/14 12:32:11;;;;;;;;;;;;;;;;;;2203875;59;2308;-72
2023/04/14 12:34:51;;;;;;;;;;;;;;;;;;2205828;59;1165;-71
2023/04/14 12:37:24;;;;;;;;;;;;;;;;;;2205252;67;1955;-72
2023/04/14 12:39:59;;;;;;;;;;;;;;;;;;2202557;59;1188;-71
2023/04/14 12:42:50;;;;;;;;;;;;;;;;;;2203776;59;1214;-71
2023/04/14 12:45:23;;;;;;;;;;;;;;;;;;2204012;67;1716;-71
2023/04/14 12:47:55;;;;;;;;;;;;;;;;;;2201409;67;1249;-72
2023/04/14 12:50:27;;;;;;;;;;;;;;;;;;2204174;59;1230;-71
2023/04/14 12:52:58;;;;;;;;;;;;;;;;;;2203783;67;1139;-72
2023/04/14 12:55:30;;;;;;;;;;;;;;;;;;2204256;59;1933;-71
2023/04/14 12:58:02;;;;;;;;;;;;;;;;;;2203832;67;1255;-71
2023/04/14 13:00:33;;;;;;;;;;;;;;;;;;2203724;59;2228;-71
2023/04/14 13:03:04;;;;;;;;;;;;;;;;;;2203612;59;1150;-71
2023/04/14 13:05:35;;;;;;;;;;;;;;;;;;2203332;59;1941;-71
2023/04/14 13:08:05;;;;;;;;;;;;;;;;;;2204138;67;1243;-71
2023/04/14 13:10:35;;;;;;;;;;;;;;;;;;2203137;59;1988;-71
2023/04/14 13:13:06;;;;;;;;;;;;;;;;;;2202796;59;1712;-71
2023/04/14 13:15:41;;;;;;;;;;;;;;;;;;2203413;59;2024;-71
2023/04/14 13:18:12;;;;;;;;;;;;;;;;;;2204313;67;1267;-71
2023/04/14 13:20:42;;;;;;;;;;;;;;;;;;2198840;59;2246;-72
2023/04/14 13:23:12;;;;;;;;;;;;;;;;;;2203072;59;2585;-71
2023/04/14 13:25:42;;;;;;;;;;;;;;;;;;2203729;59;2212;-71
2023/04/14 13:28:13;;;;;;;;;;;;;;;;;;2204263;59;1254;-71
2023/04/14 13:30:45;;;;;;;;;;;;;;;;;;2203200;59;2114;-71
2023/04/14 13:33:16;;;;;;;;;;;;;;;;;;2203256;59;1541;-71
2023/04/14 13:35:46;;;;;;;;;;;;;;;;;;2201925;59;1972;-71
2023/04/14 13:38:17;;;;;;;;;;;;;;;;;;2201950;59;1781;-71
2023/04/14 13:40:47;;;;;;;;;;;;;;;;;;2202596;59;2073;-71
2023/04/14 13:43:18;;;;;;;;;;;;;;;;;;2202503;59;2004;-71
2023/04/14 13:45:51;;;;;;;;;;;;;;;;;;2201812;59;2088;-71
2023/04/14 13:48:24;;;;;;;;;;;;;;;;;;2203790;59;2206;-71
2023/04/14 13:50:55;;;;;;;;;;;;;;;;;;2202615;59;1947;-71
2023/04/14 13:53:25;;;;;;;;;;;;;;;;;;2199285;59;2194;-71
2023/04/14 13:55:55;;;;;;;;;;;;;;;;;;2202913;59;2250;-71
2023/04/14 13:58:26;;;;;;;;;;;;;;;;;;2203277;59;1481;-71
2023/04/14 14:00:56;;;;;;;;;;;;;;;;;;2203583;59;2109;-71
2023/04/14 14:03:27;;;;;;;;;;;;;;;;;;2203348;67;991;-71
2023/04/14 14:05:57;;;;;;;;;;;;;;;;;;2202734;59;2174;-71
2023/04/14 14:08:29;;;;;;;;;;;;;;;;;;2203228;59;2357;-71
2023/04/14 14:11:11;;;;;;;;;;;;;;;;;;2202661;59;2302;-71
2023/04/14 14:13:41;;;;;;;;;;;;;;;;;;2202248;59;1987;-71
2023/04/14 14:16:12;;;;;;;;;;;;;;;;;;2202849;59;1982;-71
2023/04/14 14:18:51;;;;;;;;;;;;;;;;;;2203036;67;1239;-71
2023/04/14 14:21:25;;;;;;;;;;;;;;;;;;2198924;59;2184;-71
2023/04/14 14:23:59;;;;;;;;;;;;;;;;;;2201962;59;2281;-71
2023/04/14 14:26:29;;;;;;;;;;;;;;;;;;2201497;59;2264;-71
2023/04/14 14:29:00;;;;;;;;;;;;;;;;;;2202925;59;1964;-71
2023/04/14 14:31:37;;;;;;;;;;;;;;;;;;2199278;59;2028;-71
2023/04/14 14:34:08;;;;;;;;;;;;;;;;;;2204321;59;1653;-72
2023/04/14 14:36:42;;;;;;;;;;;;;;;;;;2203007;59;2093;-71
2023/04/14 14:39:12;;;;;;;;;;;;;;;;;;2202347;59;2062;-71
2023/04/14 14:41:45;;;;;;;;;;;;;;;;;;2199633;59;2272;-72
2023/04/14 14:44:16;;;;;;;;;;;;;;;;;;2204385;67;1027;-71
2023/04/14 14:46:53;;;;;;;;;;;;;;;;;;2202231;59;1951;-71
2023/04/14 14:49:23;;;;;;;;;;;;;;;;;;2201689;59;2114;-72
2023/04/14 14:51:54;;;;;;;;;;;;;;;;;;2201827;59;2269;-72
2023/04/14 14:54:24;;;;;;;;;;;;;;;;;;2201584;59;2236;-71
2023/04/14 14:56:55;;;;;;;;;;;;;;;;;;2205161;59;1982;-71
2023/04/14 14:59:26;;;;;;;;;;;;;;;;;;2199478;59;2053;-71
2023/04/14 15:01:56;;;;;;;;;;;;;;;;;;2201946;59;1217;-71
2023/04/14 15:04:26;;;;;;;;;;;;;;;;;;2200497;59;2252;-72
2023/04/14 15:06:57;;;;;;;;;;;;;;;;;;2199955;60;1400;-71
2023/04/14 15:09:27;;;;;;;;;;;;;;;;;;2198212;59;2111;-72
2023/04/14 15:11:58;;;;;;;;;;;;;;;;;;2203849;59;1857;-72
2023/04/14 15:14:29;;;;;;;;;;;;;;;;;;2198631;59;1688;-71
2023/04/14 15:17:00;;;;;;;;;;;;;;;;;;2203084;67;1932;-71
2023/04/14 15:19:37;;;;;;;;;;;;;;;;;;2204418;59;2015;-71
2023/04/14 15:22:07;;;;;;;;;;;;;;;;;;2200196;59;2189;-72
2023/04/14 15:24:40;;;;;;;;;;;;;;;;;;2202148;59;2349;-71
2023/04/14 15:27:10;;;;;;;;;;;;;;;;;;2204316;67;1258;-71
2023/04/14 15:29:41;;;;;;;;;;;;;;;;;;2204298;59;1888;-71
2023/04/14 15:32:11;;;;;;;;;;;;;;;;;;2203759;59;1844;-71
2023/04/14 15:34:44;;;;;;;;;;;;;;;;;;2202295;59;1882;-71
2023/04/14 15:37:15;;;;;;;;;;;;;;;;;;2199477;59;1936;-71
2023/04/14 15:39:49;;;;;;;;;;;;;;;;;;2199976;59;2063;-71
2023/04/14 15:42:19;;;;;;;;;;;;;;;;;;2204314;53;2606;-19
2023/04/14 15:44:50;;;;;;;;;;;;;;;;;;2201832;59;2035;-19
2023/04/14 15:47:20;;;;;;;;;;;;;;;;;;2201982;59;2085;-19
2023/04/14 15:49:50;;;;;;;;;;;;;;;;;;2201719;59;1307;-19
2023/04/14 15:52:20;;;;;;;;;;;;;;;;;;2201660;59;1997;-19
2023/04/14 15:54:50;;;;;;;;;;;;;;;;;;2201520;59;1482;-19
2023/04/14 15:57:22;;;;;;;;;;;;;;;;;;2201382;59;2074;-19
2023/04/14 15:59:52;;;;;;;;;;;;;;;;;;2201286;59;1224;-19
2023/04/14 16:02:23;;;;;;;;;;;;;;;;;;2201371;59;1999;-19
2023/04/14 16:04:53;;;;;;;;;;;;;;;;;;2201705;59;1585;-19
2023/04/14 16:07:26;;;;;;;;;;;;;;;;;;2202363;59;1984;-18
2023/04/14 16:09:56;;;;;;;;;;;;;;;;;;2201512;59;1610;-19
2023/04/14 16:12:26;;;;;;;;;;;;;;;;;;2201543;59;2043;-20
2023/04/14 16:14:57;;;;;;;;;;;;;;;;;;2200421;67;2379;-19
2023/04/14 16:17:27;;;;;;;;;;;;;;;;;;2201707;59;1948;-19
2023/04/14 16:19:57;;;;;;;;;;;;;;;;;;2201227;67;1628;-19
2023/04/14 16:22:29;;;;;;;;;;;;;;;;;;2201399;59;1887;-19
2023/04/14 16:25:00;;;;;;;;;;;;;;;;;;2200216;59;2651;-19
2023/04/14 16:27:30;;;;;;;;;;;;;;;;;;2201034;59;1782;-19
2023/04/14 16:30:02;;;;;;;;;;;;;;;;;;2201215;59;1250;-19
2023/04/14 16:32:32;;;;;;;;;;;;;;;;;;2201999;59;1431;-19
2023/04/14 16:35:02;;;;;;;;;;;;;;;;;;2198177;59;1339;-19
2023/04/14 16:37:33;;;;;;;;;;;;;;;;;;2201392;59;2466;-20
2023/04/14 16:40:05;;;;;;;;;;;;;;;;;;2201666;67;1154;-19
2023/04/14 16:42:36;;;;;;;;;;;;;;;;;;2200918;59;2185;-19
2023/04/14 16:45:07;;;;;;;;;;;;;;;;;;2201638;59;1219;-19
2023/04/14 16:47:37;;;;;;;;;;;;;;;;;;2202007;59;2232;-19
2023/04/14 16:50:08;;;;;;;;;;;;;;;;;;2202229;59;1418;-19
2023/04/14 16:52:38;;;;;;;;;;;;;;;;;;2198846;59;1887;-19
2023/04/14 16:55:08;;;;;;;;;;;;;;;;;;2202098;67;1116;-19
2023/04/14 16:57:38;;;;;;;;;;;;;;;;;;2201865;59;1940;-19
2023/04/14 17:00:12;;;;;;;;;;;;;;;;;;2200490;59;1223;-19
2023/04/14 17:02:42;;;;;;;;;;;;;;;;;;2198338;59;2261;-19
2023/04/14 17:05:14;;;;;;;;;;;;;;;;;;2201558;67;1697;-19
2023/04/14 17:07:45;;;;;;;;;;;;;;;;;;2201408;59;2136;-19
2023/04/14 17:10:15;;;;;;;;;;;;;;;;;;2201492;59;1680;-19
2023/04/14 17:12:46;;;;;;;;;;;;;;;;;;2202044;59;2034;-19
2023/04/14 17:15:16;;;;;;;;;;;;;;;;;;2201651;67;2388;-18
2023/04/14 17:17:46;;;;;;;;;;;;;;;;;;2200927;59;2129;-19
2023/04/14 17:20:17;;;;;;;;;;;;;;;;;;2201423;59;1597;-19
2023/04/14 17:22:47;;;;;;;;;;;;;;;;;;2204721;54;3790;-17
2023/04/14 17:25:19;;;;;;;;;;;;;;;;;;2202928;59;2808;-17
2023/04/14 17:27:50;;;;;;;;;;;;;;;;;;2203237;59;2132;-17
2023/04/14 17:30:20;;;;;;;;;;;;;;;;;;2201367;59;1607;-17
2023/04/14 17:32:50;;;;;;;;;;;;;;;;;;2197536;59;2200;-17
2023/04/14 17:35:21;;;;;;;;;;;;;;;;;;2197578;59;1924;-17
2023/04/14 17:37:51;;;;;;;;;;;;;;;;;;2196854;59;2076;-17